createdAt,value
2017-12-20T00:02:08.927Z,7.00
2017-12-20T00:04:36.375Z,7.00
2017-12-20T00:07:03.899Z,7.00
2017-12-20T00:09:31.311Z,6.90
2017-12-20T00:11:58.778Z,6.90
2017-12-20T00:14:26.240Z,6.90
2017-12-20T00:16:53.672Z,6.80
2017-12-20T00:19:21.099Z,6.90
2017-12-20T00:21:49.302Z,6.90
2017-12-20T00:24:16.750Z,6.90
2017-12-20T00:26:44.178Z,6.90
2017-12-20T00:29:12.381Z,7.00
2017-12-20T00:31:39.870Z,7.00
2017-12-20T00:34:07.298Z,7.00
2017-12-20T00:36:34.781Z,7.00
2017-12-20T00:39:02.238Z,7.00
2017-12-20T00:41:29.682Z,7.00
2017-12-20T00:43:57.114Z,6.90
2017-12-20T00:46:24.555Z,6.90
2017-12-20T00:48:52.782Z,6.90
2017-12-20T00:51:20.214Z,6.90
2017-12-20T00:53:47.686Z,6.90
2017-12-20T00:56:15.138Z,6.90
2017-12-20T00:58:42.611Z,7.00
2017-12-20T01:01:10.041Z,7.00
2017-12-20T01:03:37.517Z,7.00
2017-12-20T01:06:04.967Z,7.20
2017-12-20T01:08:32.405Z,7.30
2017-12-20T01:10:59.884Z,7.20
2017-12-20T01:13:27.326Z,7.20
2017-12-20T01:15:54.794Z,7.20
2017-12-20T01:18:22.254Z,7.20
2017-12-20T01:20:49.714Z,7.10
2017-12-20T01:23:17.170Z,7.20
2017-12-20T01:25:44.602Z,7.20
2017-12-20T01:28:12.070Z,7.20
2017-12-20T01:30:39.536Z,7.30
2017-12-20T01:33:06.969Z,7.30
2017-12-20T01:35:34.390Z,7.20
2017-12-20T01:38:02.630Z,7.20
2017-12-20T01:40:30.067Z,7.10
2017-12-20T01:42:57.542Z,7.20
2017-12-20T01:45:24.994Z,7.20
2017-12-20T01:47:52.430Z,7.20
2017-12-20T01:50:20.535Z,7.20
2017-12-20T01:52:47.979Z,7.20
2017-12-20T01:55:15.422Z,7.20
2017-12-20T01:57:42.882Z,7.20
2017-12-20T02:00:10.332Z,7.20
2017-12-20T02:02:37.798Z,7.20
2017-12-20T02:05:05.230Z,7.10
2017-12-20T02:07:32.715Z,7.10
2017-12-20T02:10:00.194Z,7.10
2017-12-20T02:12:27.723Z,7.20
2017-12-20T02:14:55.163Z,7.30
2017-12-20T02:17:22.746Z,7.20
2017-12-20T02:19:50.189Z,7.20
2017-12-20T02:22:17.688Z,7.20
2017-12-20T02:24:45.205Z,7.20
2017-12-20T02:27:12.797Z,7.30
2017-12-20T02:29:40.240Z,7.40
2017-12-20T02:32:07.680Z,7.40
2017-12-20T02:34:35.106Z,7.40
2017-12-20T02:37:02.538Z,7.40
2017-12-20T02:39:30.748Z,7.40
2017-12-20T02:41:58.238Z,7.30
2017-12-20T02:44:25.786Z,7.30
2017-12-20T02:46:53.219Z,7.30
2017-12-20T02:49:20.691Z,7.20
2017-12-20T02:51:48.123Z,7.20
2017-12-20T02:54:15.560Z,7.30
2017-12-20T02:56:43.767Z,7.30
2017-12-20T02:59:11.191Z,7.30
2017-12-20T03:04:29.533Z,7.20
2017-12-20T03:06:57.729Z,7.10
2017-12-20T03:09:25.227Z,7.10
2017-12-20T03:11:52.677Z,7.10
2017-12-20T03:14:20.142Z,7.10
2017-12-20T03:16:47.593Z,7.10
2017-12-20T03:19:15.057Z,7.10
2017-12-20T03:21:42.514Z,7.10
2017-12-20T03:24:09.970Z,7.10
2017-12-20T03:26:37.414Z,7.10
2017-12-20T03:29:04.842Z,7.20
2017-12-20T03:31:32.326Z,7.30
2017-12-20T03:33:59.790Z,7.20
2017-12-20T03:36:27.237Z,7.30
2017-12-20T03:38:54.674Z,7.30
2017-12-20T03:41:22.111Z,7.40
2017-12-20T03:43:50.329Z,7.50
2017-12-20T03:46:17.755Z,7.40
2017-12-20T03:48:45.239Z,7.40
2017-12-20T03:51:12.671Z,7.40
2017-12-20T03:53:40.110Z,7.30
2017-12-20T03:56:07.614Z,7.30
2017-12-20T03:58:35.050Z,7.30
2017-12-20T04:01:02.523Z,7.30
2017-12-20T04:03:29.973Z,7.30
2017-12-20T04:05:57.408Z,7.30
2017-12-20T04:08:24.834Z,7.30
2017-12-20T04:10:53.074Z,7.30
2017-12-20T04:13:20.626Z,7.20
2017-12-20T04:15:48.086Z,7.40
2017-12-20T04:18:15.535Z,7.40
2017-12-20T04:20:42.986Z,7.40
2017-12-20T04:23:10.414Z,7.40
2017-12-20T04:25:37.845Z,7.50
2017-12-20T04:28:06.091Z,7.50
2017-12-20T04:30:33.534Z,7.50
2017-12-20T04:33:00.964Z,7.50
2017-12-20T04:35:28.483Z,7.50
2017-12-20T04:37:55.905Z,7.50
2017-12-20T04:40:23.339Z,7.60
2017-12-20T04:42:50.824Z,7.70
2017-12-20T04:45:18.378Z,7.70
2017-12-20T04:47:45.834Z,7.70
2017-12-20T04:50:13.258Z,7.90
2017-12-20T04:52:40.696Z,8.10
2017-12-20T04:55:08.922Z,8.30
2017-12-20T04:57:36.399Z,8.30
2017-12-20T05:00:03.918Z,8.30
2017-12-20T05:02:31.386Z,8.30
2017-12-20T05:04:58.814Z,8.40
2017-12-20T05:07:26.250Z,8.40
2017-12-20T05:09:54.455Z,8.50
2017-12-20T05:12:21.942Z,8.50
2017-12-20T05:14:50.111Z,8.60
2017-12-20T05:17:17.575Z,8.60
2017-12-20T05:19:45.010Z,8.50
2017-12-20T05:22:12.461Z,8.50
2017-12-20T05:24:39.878Z,8.60
2017-12-20T05:27:08.101Z,8.70
2017-12-20T05:29:35.546Z,8.60
2017-12-20T05:32:02.974Z,8.60
2017-12-20T05:34:30.406Z,8.50
2017-12-20T05:36:58.758Z,8.60
2017-12-20T05:39:26.218Z,8.60
2017-12-20T05:41:53.774Z,8.60
2017-12-20T05:44:21.213Z,8.50
2017-12-20T05:46:48.782Z,8.40
2017-12-20T05:49:16.324Z,8.40
2017-12-20T05:51:43.761Z,8.40
2017-12-20T05:54:11.193Z,8.30
2017-12-20T05:56:39.404Z,8.40
2017-12-20T05:59:06.877Z,8.30
2017-12-20T06:01:34.335Z,8.40
2017-12-20T06:04:01.800Z,8.50
2017-12-20T06:06:29.222Z,8.40
2017-12-20T06:08:56.742Z,8.40
2017-12-20T06:11:24.936Z,8.60
2017-12-20T06:13:52.438Z,8.60
2017-12-20T06:16:19.887Z,8.60
2017-12-20T06:18:47.342Z,8.70
2017-12-20T06:21:14.910Z,8.60
2017-12-20T06:23:42.363Z,8.50
2017-12-20T06:26:09.826Z,8.60
2017-12-20T06:28:37.256Z,8.70
2017-12-20T06:31:04.690Z,8.70
2017-12-20T06:33:32.182Z,8.80
2017-12-20T06:35:59.622Z,8.80
2017-12-20T06:38:27.082Z,8.80
2017-12-20T06:40:54.567Z,8.80
2017-12-20T06:43:22.002Z,8.70
2017-12-20T06:45:49.471Z,8.60
2017-12-20T06:48:16.908Z,8.50
2017-12-20T06:50:44.355Z,8.40
2017-12-20T06:53:11.785Z,8.30
2017-12-20T06:55:39.995Z,8.10
2017-12-20T06:58:07.497Z,8.00
2017-12-20T07:00:34.927Z,8.10
2017-12-20T07:03:02.374Z,8.00
2017-12-20T07:05:29.818Z,8.20
2017-12-20T07:07:57.250Z,8.30
2017-12-20T07:10:24.833Z,8.40
2017-12-20T07:12:52.250Z,8.40
2017-12-20T07:15:20.588Z,8.20
2017-12-20T07:17:48.031Z,8.20
2017-12-20T07:20:15.522Z,8.10
2017-12-20T07:22:42.965Z,8.00
2017-12-20T07:25:10.402Z,7.90
2017-12-20T07:27:37.951Z,7.90
2017-12-20T07:30:05.367Z,7.90
2017-12-20T07:32:32.811Z,7.90
2017-12-20T07:35:00.274Z,7.90
2017-12-20T07:37:28.476Z,7.80
2017-12-20T07:39:55.970Z,7.80
2017-12-20T07:42:23.406Z,7.80
2017-12-20T07:44:50.874Z,7.80
2017-12-20T07:47:18.549Z,7.80
2017-12-20T07:49:45.992Z,7.70
2017-12-20T07:52:13.435Z,7.60
2017-12-20T07:54:40.922Z,7.60
2017-12-20T07:57:08.462Z,7.60
2017-12-20T07:59:35.931Z,7.60
2017-12-20T08:02:03.376Z,7.60
2017-12-20T08:04:30.851Z,7.70
2017-12-20T08:06:58.295Z,7.60
2017-12-20T08:09:25.745Z,7.60
2017-12-20T08:11:53.185Z,7.70
2017-12-20T08:14:20.771Z,7.70
2017-12-20T08:16:48.333Z,7.80
2017-12-20T08:19:15.774Z,7.90
2017-12-20T08:21:43.443Z,7.90
2017-12-20T08:24:10.979Z,7.90
2017-12-20T08:26:38.406Z,7.90
2017-12-20T08:29:05.913Z,7.90
2017-12-20T08:31:33.468Z,7.80
2017-12-20T08:34:00.905Z,7.80
2017-12-20T08:36:28.492Z,7.70
2017-12-20T08:38:56.042Z,7.70
2017-12-20T08:41:23.483Z,7.70
2017-12-20T08:43:50.931Z,7.70
2017-12-20T08:46:18.381Z,7.70
2017-12-20T08:48:45.808Z,7.70
2017-12-20T08:51:13.242Z,7.60
2017-12-20T08:53:41.225Z,7.60
2017-12-20T08:56:08.641Z,7.60
2017-12-20T08:58:36.094Z,7.50
2017-12-20T09:01:03.567Z,7.60
2017-12-20T09:03:31.078Z,7.70
2017-12-20T09:05:58.464Z,7.70
2017-12-20T09:08:25.902Z,7.80
2017-12-20T09:10:53.466Z,7.80
2017-12-20T09:13:20.942Z,7.80
2017-12-20T09:15:48.377Z,7.80
2017-12-20T09:18:15.819Z,7.80
2017-12-20T09:20:43.316Z,7.80
2017-12-20T09:23:10.850Z,7.80
2017-12-20T09:25:38.264Z,7.90
2017-12-20T09:28:05.779Z,7.90
2017-12-20T09:30:33.221Z,8.00
2017-12-20T09:33:00.659Z,8.00
2017-12-20T09:35:28.158Z,7.90
2017-12-20T09:37:55.613Z,7.80
2017-12-20T09:40:23.157Z,7.80
2017-12-20T09:42:50.577Z,7.80
2017-12-20T09:45:18.782Z,7.80
2017-12-20T09:47:46.273Z,7.80
2017-12-20T09:50:13.800Z,7.80
2017-12-20T09:52:41.214Z,7.70
2017-12-20T09:55:09.410Z,7.70
2017-12-20T09:57:36.925Z,7.60
2017-12-20T10:00:04.351Z,7.70
2017-12-20T10:02:31.834Z,7.70
2017-12-20T10:04:59.283Z,7.80
2017-12-20T10:07:26.719Z,7.90
2017-12-20T10:09:54.154Z,7.90
2017-12-20T10:12:22.354Z,7.70
2017-12-20T10:14:49.816Z,7.70
2017-12-20T10:17:17.302Z,7.70
2017-12-20T10:19:44.751Z,7.70
2017-12-20T10:22:12.206Z,7.70
2017-12-20T10:24:39.645Z,7.70
2017-12-20T10:27:07.219Z,7.80
2017-12-20T10:29:34.682Z,7.80
2017-12-20T10:32:02.113Z,7.90
2017-12-20T10:34:29.694Z,7.90
2017-12-20T10:36:57.141Z,8.00
2017-12-20T10:39:24.574Z,8.00
2017-12-20T10:41:52.003Z,8.00
2017-12-20T10:44:20.205Z,8.10
2017-12-20T10:46:47.690Z,8.10
2017-12-20T10:49:15.151Z,8.10
2017-12-20T10:51:42.614Z,8.10
2017-12-20T10:54:10.074Z,8.10
2017-12-20T10:56:37.501Z,8.10
2017-12-20T10:59:04.967Z,8.20
2017-12-20T11:01:32.381Z,8.20
2017-12-20T11:04:00.610Z,8.10
2017-12-20T11:06:28.062Z,8.10
2017-12-20T11:08:55.490Z,8.10
2017-12-20T11:11:22.981Z,8.10
2017-12-20T11:13:50.448Z,8.20
2017-12-20T11:16:17.898Z,8.30
2017-12-20T11:18:45.338Z,8.30
2017-12-20T11:21:12.786Z,8.30
2017-12-20T11:23:40.217Z,8.20
2017-12-20T11:26:07.660Z,8.20
2017-12-20T11:28:35.074Z,8.10
2017-12-20T11:31:02.518Z,8.20
2017-12-20T11:33:29.957Z,8.20
2017-12-20T11:35:57.449Z,8.20
2017-12-20T11:38:24.874Z,8.20
2017-12-20T11:40:52.332Z,8.20
2017-12-20T11:43:19.785Z,8.20
2017-12-20T11:45:47.268Z,8.20
2017-12-20T11:48:14.718Z,8.20
2017-12-20T11:50:42.173Z,8.20
2017-12-20T11:53:09.606Z,8.10
2017-12-20T11:55:37.078Z,8.10
2017-12-20T11:58:04.534Z,8.10
2017-12-20T12:00:31.986Z,8.20
2017-12-20T12:02:59.537Z,8.30
2017-12-20T12:05:26.964Z,8.30
2017-12-20T12:07:55.178Z,8.40
2017-12-20T12:10:22.606Z,8.40
2017-12-20T12:12:50.075Z,8.40
2017-12-20T12:15:17.655Z,8.40
2017-12-20T12:17:45.099Z,8.40
2017-12-20T12:20:12.528Z,8.40
2017-12-20T12:22:39.978Z,8.40
2017-12-20T12:25:07.411Z,8.40
2017-12-20T12:27:34.844Z,8.40
2017-12-20T12:30:02.293Z,8.40
2017-12-20T12:32:29.771Z,8.40
2017-12-20T12:34:58.033Z,8.40
2017-12-20T12:37:25.487Z,8.40
2017-12-20T12:39:52.938Z,8.40
2017-12-20T12:42:20.365Z,8.50
2017-12-20T12:44:47.805Z,8.50
2017-12-20T12:47:15.231Z,8.30
2017-12-20T12:49:42.668Z,8.30
2017-12-20T12:52:10.109Z,8.30
2017-12-20T12:54:37.578Z,8.30
2017-12-20T12:57:05.122Z,8.30
2017-12-20T12:59:32.598Z,8.30
2017-12-20T13:02:00.070Z,8.30
2017-12-20T13:04:33.200Z,8.40
2017-12-20T13:07:00.795Z,8.40
2017-12-20T13:09:28.210Z,8.50
2017-12-20T13:11:56.423Z,8.50
2017-12-20T13:14:23.910Z,8.40
2017-12-20T13:16:51.338Z,8.40
2017-12-20T13:19:18.819Z,8.40
2017-12-20T13:21:46.247Z,8.50
2017-12-20T13:24:13.689Z,8.40
2017-12-20T13:26:41.891Z,8.50
2017-12-20T13:29:09.353Z,8.40
2017-12-20T13:31:36.786Z,8.50
2017-12-20T13:34:05.011Z,8.50
2017-12-20T13:36:32.451Z,8.50
2017-12-20T13:38:59.898Z,8.50
2017-12-20T13:41:27.333Z,8.50
2017-12-20T13:43:54.768Z,8.50
2017-12-20T13:46:22.204Z,8.50
2017-12-20T13:48:49.735Z,8.60
2017-12-20T13:51:17.194Z,8.60
2017-12-20T13:53:45.390Z,8.60
2017-12-20T13:56:12.826Z,8.70
2017-12-20T13:58:40.258Z,8.70
2017-12-20T14:01:07.710Z,8.70
2017-12-20T14:03:35.187Z,8.60
2017-12-20T14:06:02.638Z,8.60
2017-12-20T14:08:30.085Z,8.60
2017-12-20T14:10:57.534Z,8.50
2017-12-20T14:13:24.962Z,8.40
2017-12-20T14:15:53.284Z,8.30
2017-12-20T14:18:20.702Z,8.20
2017-12-20T14:20:48.191Z,8.30
2017-12-20T14:23:15.633Z,8.30
2017-12-20T14:25:43.054Z,8.30
2017-12-20T14:28:11.282Z,8.30
2017-12-20T14:30:38.740Z,8.30
2017-12-20T14:33:06.194Z,8.30
2017-12-20T14:35:33.622Z,8.30
2017-12-20T14:38:01.078Z,8.20
2017-12-20T14:40:28.570Z,8.30
2017-12-20T14:42:56.019Z,8.40
2017-12-20T14:45:23.479Z,8.40
2017-12-20T14:47:51.030Z,8.30
2017-12-20T14:50:18.496Z,8.30
2017-12-20T14:52:45.933Z,8.30
2017-12-20T14:55:13.391Z,8.30
2017-12-20T14:57:40.864Z,8.30
2017-12-20T15:00:08.337Z,8.30
2017-12-20T15:02:35.770Z,8.30
2017-12-20T15:05:03.245Z,8.30
2017-12-20T15:07:30.661Z,8.20
2017-12-20T15:09:58.155Z,8.10
2017-12-20T15:12:25.596Z,8.10
2017-12-20T15:14:53.026Z,8.00
2017-12-20T15:17:20.476Z,8.00
2017-12-20T15:19:48.699Z,8.00
2017-12-20T15:22:16.239Z,7.90
2017-12-20T15:24:43.649Z,8.00
2017-12-20T15:27:11.890Z,8.10
2017-12-20T15:29:39.427Z,8.10
2017-12-20T15:32:06.907Z,8.10
2017-12-20T15:34:34.358Z,8.00
2017-12-20T15:37:01.917Z,8.10
2017-12-20T15:39:29.352Z,8.10
2017-12-20T15:41:56.785Z,8.20
2017-12-20T15:44:24.249Z,8.20
2017-12-20T15:46:52.422Z,8.30
2017-12-20T15:49:20.014Z,8.20
2017-12-20T15:51:47.572Z,8.30
2017-12-20T15:54:15.030Z,8.30
2017-12-20T15:56:42.489Z,8.30
2017-12-20T15:59:10.921Z,8.30
2017-12-20T16:01:38.339Z,8.30
2017-12-20T16:04:05.964Z,8.30
2017-12-20T16:06:33.525Z,8.20
2017-12-20T16:09:00.943Z,8.20
2017-12-20T16:11:28.449Z,8.20
2017-12-20T16:13:55.894Z,8.10
2017-12-20T16:16:23.318Z,8.00
2017-12-20T16:18:51.523Z,8.00
2017-12-20T16:21:18.966Z,8.00
2017-12-20T16:23:46.401Z,8.00
2017-12-20T16:26:13.882Z,8.00
2017-12-20T16:28:41.311Z,8.00
2017-12-20T16:31:08.767Z,7.90
2017-12-20T16:33:36.960Z,7.90
2017-12-20T16:36:04.458Z,7.80
2017-12-20T16:38:31.882Z,7.90
2017-12-20T16:40:59.321Z,7.90
2017-12-20T16:43:27.549Z,7.90
2017-12-20T16:45:54.982Z,7.90
2017-12-20T16:48:22.570Z,8.00
2017-12-20T16:50:50.018Z,7.90
2017-12-20T16:53:29.222Z,7.90
2017-12-20T16:55:56.723Z,7.90
2017-12-20T16:58:24.166Z,7.90
2017-12-20T17:00:51.608Z,7.90
2017-12-20T17:03:19.026Z,7.90
2017-12-20T17:05:47.265Z,7.90
2017-12-20T17:08:14.707Z,7.80
2017-12-20T17:10:42.143Z,7.90
2017-12-20T17:13:09.622Z,7.80
2017-12-20T17:15:37.161Z,7.80
2017-12-20T17:18:04.586Z,7.80
2017-12-20T17:20:32.819Z,7.80
2017-12-20T17:23:00.279Z,7.80
2017-12-20T17:25:27.703Z,7.80
2017-12-20T17:27:55.162Z,7.80
2017-12-20T17:30:22.587Z,7.80
2017-12-20T17:32:50.801Z,7.80
2017-12-20T17:35:18.263Z,7.80
2017-12-20T17:37:45.711Z,7.80
2017-12-20T17:40:13.373Z,7.70
2017-12-20T17:42:40.791Z,7.70
2017-12-20T17:45:08.982Z,7.70
2017-12-20T17:47:36.471Z,7.70
2017-12-20T17:50:03.950Z,7.80
2017-12-20T17:52:31.506Z,7.80
2017-12-20T17:54:58.929Z,7.80
2017-12-20T17:57:26.385Z,7.80
2017-12-20T17:59:53.802Z,7.80
2017-12-20T18:02:22.129Z,7.80
2017-12-20T18:04:49.684Z,7.80
2017-12-20T18:07:17.155Z,7.80
2017-12-20T18:09:44.602Z,7.80
2017-12-20T18:12:12.071Z,7.80
2017-12-20T18:14:39.506Z,7.80
2017-12-20T18:17:06.940Z,7.80
2017-12-20T18:19:34.369Z,7.80
2017-12-20T18:22:02.610Z,7.80
2017-12-20T18:24:30.067Z,7.80
2017-12-20T18:26:57.513Z,7.90
2017-12-20T18:29:24.983Z,7.90
2017-12-20T18:31:52.415Z,7.90
2017-12-20T18:34:19.890Z,8.00
2017-12-20T18:36:47.325Z,8.00
2017-12-20T18:39:14.786Z,8.00
2017-12-20T18:41:42.265Z,8.00
2017-12-20T18:44:09.723Z,8.00
2017-12-20T18:46:37.169Z,8.00
2017-12-20T18:49:04.627Z,8.00
2017-12-20T18:51:32.190Z,8.00
2017-12-20T18:53:59.642Z,8.00
2017-12-20T18:56:27.098Z,8.00
2017-12-20T18:58:54.534Z,7.90
2017-12-20T19:01:21.980Z,7.90
2017-12-20T19:03:49.416Z,7.80
2017-12-20T19:06:17.631Z,7.80
2017-12-20T19:08:45.079Z,7.70
2017-12-20T19:11:12.522Z,7.70
2017-12-20T19:13:40.123Z,7.60
2017-12-20T19:16:07.604Z,7.60
2017-12-20T19:18:35.091Z,7.60
2017-12-20T19:21:02.532Z,7.60
2017-12-20T19:23:30.063Z,7.60
2017-12-20T19:25:57.529Z,7.50
2017-12-20T19:28:25.075Z,7.60
2017-12-20T19:30:52.514Z,7.60
2017-12-20T19:33:19.968Z,7.60
2017-12-20T19:35:47.423Z,7.60
2017-12-20T19:38:14.906Z,7.60
2017-12-20T19:40:42.342Z,7.50
2017-12-20T19:43:09.795Z,7.50
2017-12-20T19:45:37.232Z,7.60
2017-12-20T19:48:04.696Z,7.60
2017-12-20T19:50:32.166Z,7.60
2017-12-20T19:52:59.593Z,7.50
2017-12-20T19:55:27.024Z,7.60
2017-12-20T19:57:55.258Z,7.50
2017-12-20T20:00:22.682Z,7.50
2017-12-20T20:02:50.133Z,7.50
2017-12-20T20:05:17.722Z,7.40
2017-12-20T20:07:45.265Z,7.40
2017-12-20T20:10:12.674Z,7.50
2017-12-20T20:12:40.891Z,7.40
2017-12-20T20:15:08.323Z,7.30
2017-12-20T20:17:36.526Z,7.30
2017-12-20T20:20:03.958Z,7.20
2017-12-20T20:22:31.474Z,7.30
2017-12-20T20:24:58.893Z,7.30
2017-12-20T20:27:26.375Z,7.30
2017-12-20T20:29:53.934Z,7.40
2017-12-20T20:32:21.382Z,7.30
2017-12-20T20:34:48.838Z,7.40
2017-12-20T20:37:16.294Z,7.40
2017-12-20T20:39:43.735Z,7.40
2017-12-20T20:42:11.223Z,7.40
2017-12-20T20:44:38.866Z,7.40
2017-12-20T20:47:06.450Z,7.30
2017-12-20T20:49:34.400Z,7.30
2017-12-20T20:52:01.816Z,7.30
2017-12-20T20:54:29.423Z,7.40
2017-12-20T20:56:56.832Z,7.40
2017-12-20T20:59:25.066Z,7.40
2017-12-20T21:01:52.534Z,7.40
2017-12-20T21:04:20.005Z,7.30
2017-12-20T21:06:47.442Z,7.30
2017-12-20T21:09:14.874Z,7.30
2017-12-20T21:11:42.314Z,7.30
2017-12-20T21:14:09.806Z,7.30
2017-12-20T21:16:37.270Z,7.30
2017-12-20T21:19:04.697Z,7.40
2017-12-20T21:21:32.185Z,7.40
2017-12-20T21:23:59.625Z,7.30
2017-12-20T21:26:27.074Z,7.30
2017-12-20T21:28:54.550Z,7.30
2017-12-20T21:31:22.006Z,7.30
2017-12-20T21:33:49.430Z,7.30
2017-12-20T21:36:16.861Z,7.30
2017-12-20T21:38:44.294Z,7.30
2017-12-20T21:41:11.825Z,7.40
2017-12-20T21:43:39.294Z,7.30
2017-12-20T21:46:06.746Z,7.30
2017-12-20T21:48:34.193Z,7.30
2017-12-20T21:51:01.667Z,7.30
2017-12-20T21:53:29.113Z,7.40
2017-12-20T21:55:56.542Z,7.40
2017-12-20T21:58:24.017Z,7.40
2017-12-20T22:00:51.454Z,7.40
2017-12-20T22:03:18.939Z,7.30
2017-12-20T22:05:46.398Z,7.40
2017-12-20T22:08:13.866Z,7.40
2017-12-20T22:10:41.305Z,7.40
2017-12-20T22:13:08.759Z,7.40
2017-12-20T22:15:36.187Z,7.40
2017-12-20T22:18:03.669Z,7.30
2017-12-20T22:20:32.567Z,7.30
2017-12-20T22:23:00.010Z,7.30
2017-12-20T22:25:27.449Z,7.30
2017-12-20T22:27:54.944Z,7.30
2017-12-20T22:30:22.397Z,7.30
2017-12-20T22:32:49.827Z,7.30
2017-12-20T22:35:17.255Z,7.30
2017-12-20T22:37:44.694Z,7.30
2017-12-20T22:40:12.897Z,7.30
2017-12-20T22:42:41.522Z,7.40
2017-12-20T22:45:08.946Z,7.30
2017-12-20T22:47:36.399Z,7.40
2017-12-20T22:50:03.826Z,7.40
2017-12-20T22:52:32.014Z,7.40
2017-12-20T22:54:59.610Z,7.40
2017-12-20T22:57:27.074Z,7.50
2017-12-20T22:59:54.502Z,7.50
2017-12-20T23:02:21.973Z,7.50
2017-12-20T23:04:49.412Z,7.50
2017-12-20T23:07:16.994Z,7.50
2017-12-20T23:09:44.438Z,7.50
2017-12-20T23:12:11.922Z,7.50
2017-12-20T23:14:39.358Z,7.50
2017-12-20T23:17:06.805Z,7.50
2017-12-20T23:19:34.222Z,7.40
2017-12-20T23:22:02.410Z,7.40
2017-12-20T23:24:29.850Z,7.40
2017-12-20T23:26:57.278Z,7.40
2017-12-20T23:29:24.786Z,7.40
2017-12-20T23:31:52.278Z,7.40
2017-12-20T23:34:19.733Z,7.50
2017-12-20T23:36:47.168Z,7.40
2017-12-20T23:39:14.662Z,7.40
2017-12-20T23:41:42.206Z,7.50
2017-12-20T23:44:10.494Z,7.50
2017-12-20T23:46:37.927Z,7.50
2017-12-20T23:49:05.402Z,7.50
2017-12-20T23:51:32.842Z,7.50
2017-12-20T23:54:00.345Z,7.50
2017-12-20T23:56:27.875Z,7.50
2017-12-20T23:58:55.302Z,7.50
